sensor_id;sensor_type;location;lat;lon;timestamp;P1;durP1;ratioP1;P2;durP2;ratioP2
68803;SDS011;55787;52.678;13.314;2022-11-15T00:00:54;62.55;;;22.83;;
68803;SDS011;55787;52.678;13.314;2022-11-15T00:03:22;64.40;;;22.83;;
68803;SDS011;55787;52.678;13.314;2022-11-15T00:05:51;66.40;;;21.85;;
68803;SDS011;55787;52.678;13.314;2022-11-15T00:08:18;62.58;;;22.42;;
68803;SDS011;55787;52.678;13.314;2022-11-15T00:10:57;65.30;;;22.53;;
68803;SDS011;55787;52.678;13.314;2022-11-15T00:13:25;61.25;;;22.38;;
68803;SDS011;55787;52.678;13.314;2022-11-15T00:15:56;68.70;;;21.92;;
68803;SDS011;55787;52.678;13.314;2022-11-15T00:18:24;64.43;;;23.60;;
68803;SDS011;55787;52.678;13.314;2022-11-15T00:20:51;65.07;;;22.05;;
68803;SDS011;55787;52.678;13.314;2022-11-15T00:23:18;60.83;;;21.73;;
68803;SDS011;55787;52.678;13.314;2022-11-15T00:25:45;64.60;;;23.33;;
68803;SDS011;55787;52.678;13.314;2022-11-15T00:28:11;70.10;;;23.30;;
68803;SDS011;55787;52.678;13.314;2022-11-15T00:30:38;70.53;;;23.35;;
68803;SDS011;55787;52.678;13.314;2022-11-15T00:33:05;72.20;;;23.85;;
68803;SDS011;55787;52.678;13.314;2022-11-15T00:35:33;69.10;;;22.93;;
68803;SDS011;55787;52.678;13.314;2022-11-15T00:38:00;68.90;;;23.27;;
68803;SDS011;55787;52.678;13.314;2022-11-15T00:40:27;73.13;;;23.85;;
68803;SDS011;55787;52.678;13.314;2022-11-15T00:42:54;61.75;;;22.10;;
68803;SDS011;55787;52.678;13.314;2022-11-15T00:45:22;67.95;;;24.17;;
68803;SDS011;55787;52.678;13.314;2022-11-15T00:47:49;66.50;;;23.23;;
68803;SDS011;55787;52.678;13.314;2022-11-15T00:50:16;64.75;;;23.75;;
68803;SDS011;55787;52.678;13.314;2022-11-15T00:52:43;69.85;;;24.55;;
68803;SDS011;55787;52.678;13.314;2022-11-15T00:55:13;69.38;;;22.90;;
68803;SDS011;55787;52.678;13.314;2022-11-15T00:57:41;73.10;;;23.60;;
68803;SDS011;55787;52.678;13.314;2022-11-15T01:00:08;67.03;;;23.30;;
68803;SDS011;55787;52.678;13.314;2022-11-15T01:02:35;69.10;;;22.95;;
68803;SDS011;55787;52.678;13.314;2022-11-15T01:05:02;66.30;;;22.13;;
68803;SDS011;55787;52.678;13.314;2022-11-15T01:07:29;62.63;;;22.30;;
68803;SDS011;55787;52.678;13.314;2022-11-15T01:09:55;71.75;;;23.00;;
68803;SDS011;55787;52.678;13.314;2022-11-15T01:12:22;66.20;;;22.20;;
68803;SDS011;55787;52.678;13.314;2022-11-15T01:14:49;64.82;;;23.13;;
68803;SDS011;55787;52.678;13.314;2022-11-15T01:17:15;71.65;;;23.63;;
68803;SDS011;55787;52.678;13.314;2022-11-15T01:19:42;68.30;;;23.55;;
68803;SDS011;55787;52.678;13.314;2022-11-15T01:22:09;67.47;;;21.98;;
68803;SDS011;55787;52.678;13.314;2022-11-15T01:24:36;69.70;;;23.23;;
68803;SDS011;55787;52.678;13.314;2022-11-15T01:27:02;71.88;;;23.77;;
68803;SDS011;55787;52.678;13.314;2022-11-15T01:29:29;71.70;;;23.17;;
68803;SDS011;55787;52.678;13.314;2022-11-15T01:31:56;70.82;;;22.52;;
68803;SDS011;55787;52.678;13.314;2022-11-15T01:34:22;71.90;;;24.05;;
68803;SDS011;55787;52.678;13.314;2022-11-15T01:36:49;70.07;;;22.67;;
68803;SDS011;55787;52.678;13.314;2022-11-15T01:39:16;70.88;;;23.60;;
68803;SDS011;55787;52.678;13.314;2022-11-15T01:41:43;77.30;;;24.30;;
68803;SDS011;55787;52.678;13.314;2022-11-15T01:46:55;73.85;;;24.02;;
68803;SDS011;55787;52.678;13.314;2022-11-15T01:49:22;71.47;;;23.60;;
68803;SDS011;55787;52.678;13.314;2022-11-15T01:51:50;66.68;;;23.33;;
68803;SDS011;55787;52.678;13.314;2022-11-15T01:54:18;77.25;;;23.17;;
68803;SDS011;55787;52.678;13.314;2022-11-15T01:56:51;74.53;;;23.55;;
68803;SDS011;55787;52.678;13.314;2022-11-15T01:59:25;64.97;;;22.67;;
68803;SDS011;55787;52.678;13.314;2022-11-15T02:01:52;67.73;;;22.93;;
68803;SDS011;55787;52.678;13.314;2022-11-15T02:04:20;74.65;;;24.42;;
68803;SDS011;55787;52.678;13.314;2022-11-15T02:06:51;71.10;;;23.02;;
68803;SDS011;55787;52.678;13.314;2022-11-15T02:09:18;67.10;;;23.38;;
68803;SDS011;55787;52.678;13.314;2022-11-15T02:11:44;77.65;;;24.88;;
68803;SDS011;55787;52.678;13.314;2022-11-15T02:14:14;70.90;;;23.90;;
68803;SDS011;55787;52.678;13.314;2022-11-15T02:22:27;66.85;;;22.30;;
68803;SDS011;55787;52.678;13.314;2022-11-15T02:25:03;77.05;;;23.95;;
68803;SDS011;55787;52.678;13.314;2022-11-15T02:28:08;69.80;;;22.53;;
68803;SDS011;55787;52.678;13.314;2022-11-15T02:36:02;68.10;;;22.17;;
68803;SDS011;55787;52.678;13.314;2022-11-15T02:41:39;68.53;;;22.77;;
68803;SDS011;55787;52.678;13.314;2022-11-15T02:44:09;67.82;;;22.55;;
68803;SDS011;55787;52.678;13.314;2022-11-15T02:46:48;76.97;;;23.23;;
68803;SDS011;55787;52.678;13.314;2022-11-15T02:49:35;73.78;;;23.92;;
68803;SDS011;55787;52.678;13.314;2022-11-15T02:52:04;69.00;;;23.15;;
68803;SDS011;55787;52.678;13.314;2022-11-15T02:54:31;71.73;;;23.00;;
68803;SDS011;55787;52.678;13.314;2022-11-15T02:57:03;70.65;;;22.48;;
68803;SDS011;55787;52.678;13.314;2022-11-15T02:59:49;70.25;;;22.77;;
68803;SDS011;55787;52.678;13.314;2022-11-15T03:07:41;64.07;;;21.43;;
68803;SDS011;55787;52.678;13.314;2022-11-15T03:19:08;61.67;;;20.85;;
68803;SDS011;55787;52.678;13.314;2022-11-15T03:21:46;69.93;;;22.40;;
68803;SDS011;55787;52.678;13.314;2022-11-15T03:24:15;66.15;;;21.40;;
68803;SDS011;55787;52.678;13.314;2022-11-15T03:26:51;74.32;;;23.02;;
68803;SDS011;55787;52.678;13.314;2022-11-15T03:29:22;72.35;;;22.23;;
68803;SDS011;55787;52.678;13.314;2022-11-15T03:31:57;70.03;;;22.80;;
68803;SDS011;55787;52.678;13.314;2022-11-15T03:34:32;66.13;;;22.00;;
68803;SDS011;55787;52.678;13.314;2022-11-15T03:37:00;62.45;;;21.65;;
68803;SDS011;55787;52.678;13.314;2022-11-15T03:39:27;73.13;;;22.27;;
68803;SDS011;55787;52.678;13.314;2022-11-15T03:41:57;66.90;;;22.17;;
68803;SDS011;55787;52.678;13.314;2022-11-15T03:44:48;62.95;;;21.85;;
68803;SDS011;55787;52.678;13.314;2022-11-15T03:47:36;64.47;;;21.17;;
68803;SDS011;55787;52.678;13.314;2022-11-15T03:50:24;59.63;;;20.83;;
68803;SDS011;55787;52.678;13.314;2022-11-15T03:52:52;66.25;;;21.27;;
68803;SDS011;55787;52.678;13.314;2022-11-15T03:55:21;73.07;;;22.67;;
68803;SDS011;55787;52.678;13.314;2022-11-15T03:57:49;65.90;;;20.92;;
68803;SDS011;55787;52.678;13.314;2022-11-15T04:00:19;71.60;;;22.43;;
68803;SDS011;55787;52.678;13.314;2022-11-15T04:02:47;71.75;;;22.90;;
68803;SDS011;55787;52.678;13.314;2022-11-15T04:05:13;80.05;;;22.42;;
68803;SDS011;55787;52.678;13.314;2022-11-15T04:07:40;71.95;;;22.17;;
68803;SDS011;55787;52.678;13.314;2022-11-15T04:10:08;73.55;;;22.52;;
68803;SDS011;55787;52.678;13.314;2022-11-15T04:12:37;71.50;;;22.83;;
68803;SDS011;55787;52.678;13.314;2022-11-15T04:15:08;70.00;;;22.25;;
68803;SDS011;55787;52.678;13.314;2022-11-15T04:20:12;59.58;;;21.35;;
68803;SDS011;55787;52.678;13.314;2022-11-15T04:23:01;59.22;;;20.50;;
68803;SDS011;55787;52.678;13.314;2022-11-15T04:25:52;63.97;;;20.77;;
68803;SDS011;55787;52.678;13.314;2022-11-15T04:28:19;60.38;;;20.17;;
68803;SDS011;55787;52.678;13.314;2022-11-15T04:30:46;71.13;;;21.98;;
68803;SDS011;55787;52.678;13.314;2022-11-15T04:33:15;62.65;;;21.15;;
68803;SDS011;55787;52.678;13.314;2022-11-15T04:35:42;70.43;;;21.23;;
68803;SDS011;55787;52.678;13.314;2022-11-15T04:38:09;70.37;;;21.57;;
68803;SDS011;55787;52.678;13.314;2022-11-15T04:40:37;61.83;;;20.70;;
68803;SDS011;55787;52.678;13.314;2022-11-15T04:43:04;63.38;;;20.80;;
68803;SDS011;55787;52.678;13.314;2022-11-15T04:45:31;64.97;;;21.67;;
68803;SDS011;55787;52.678;13.314;2022-11-15T04:47:58;65.55;;;21.35;;
68803;SDS011;55787;52.678;13.314;2022-11-15T04:50:24;67.50;;;20.93;;
68803;SDS011;55787;52.678;13.314;2022-11-15T04:52:53;67.68;;;21.23;;
68803;SDS011;55787;52.678;13.314;2022-11-15T04:55:20;63.78;;;20.90;;
68803;SDS011;55787;52.678;13.314;2022-11-15T04:57:47;68.28;;;21.42;;
68803;SDS011;55787;52.678;13.314;2022-11-15T05:00:15;70.45;;;21.13;;
68803;SDS011;55787;52.678;13.314;2022-11-15T05:02:43;68.23;;;21.37;;
68803;SDS011;55787;52.678;13.314;2022-11-15T05:05:28;67.22;;;22.20;;
68803;SDS011;55787;52.678;13.314;2022-11-15T05:07:55;72.38;;;21.83;;
68803;SDS011;55787;52.678;13.314;2022-11-15T05:10:22;69.13;;;21.60;;
68803;SDS011;55787;52.678;13.314;2022-11-15T05:12:49;65.85;;;20.83;;
68803;SDS011;55787;52.678;13.314;2022-11-15T05:15:15;68.97;;;22.27;;
68803;SDS011;55787;52.678;13.314;2022-11-15T05:17:42;69.35;;;22.40;;
68803;SDS011;55787;52.678;13.314;2022-11-15T05:20:09;72.50;;;22.48;;
68803;SDS011;55787;52.678;13.314;2022-11-15T05:22:36;75.28;;;22.05;;
68803;SDS011;55787;52.678;13.314;2022-11-15T05:25:03;71.80;;;21.80;;
68803;SDS011;55787;52.678;13.314;2022-11-15T05:27:30;65.60;;;22.33;;
68803;SDS011;55787;52.678;13.314;2022-11-15T05:29:56;69.00;;;21.63;;
68803;SDS011;55787;52.678;13.314;2022-11-15T05:32:23;69.07;;;22.65;;
68803;SDS011;55787;52.678;13.314;2022-11-15T05:34:50;69.88;;;22.15;;
68803;SDS011;55787;52.678;13.314;2022-11-15T05:37:16;73.55;;;21.90;;
68803;SDS011;55787;52.678;13.314;2022-11-15T05:39:44;77.60;;;22.47;;
68803;SDS011;55787;52.678;13.314;2022-11-15T05:42:11;72.13;;;21.65;;
68803;SDS011;55787;52.678;13.314;2022-11-15T05:44:41;72.18;;;22.42;;
68803;SDS011;55787;52.678;13.314;2022-11-15T05:47:15;76.07;;;23.80;;
68803;SDS011;55787;52.678;13.314;2022-11-15T05:49:47;65.68;;;22.15;;
68803;SDS011;55787;52.678;13.314;2022-11-15T05:52:17;66.50;;;21.57;;
68803;SDS011;55787;52.678;13.314;2022-11-15T05:54:48;63.05;;;21.30;;
68803;SDS011;55787;52.678;13.314;2022-11-15T05:57:16;68.68;;;22.05;;
68803;SDS011;55787;52.678;13.314;2022-11-15T05:59:43;62.15;;;20.90;;
68803;SDS011;55787;52.678;13.314;2022-11-15T06:02:10;65.75;;;21.50;;
68803;SDS011;55787;52.678;13.314;2022-11-15T06:04:37;62.57;;;20.80;;
68803;SDS011;55787;52.678;13.314;2022-11-15T06:07:04;67.25;;;20.48;;
68803;SDS011;55787;52.678;13.314;2022-11-15T06:09:31;60.63;;;20.58;;
68803;SDS011;55787;52.678;13.314;2022-11-15T06:11:57;63.95;;;20.02;;
68803;SDS011;55787;52.678;13.314;2022-11-15T06:14:24;62.85;;;20.30;;
68803;SDS011;55787;52.678;13.314;2022-11-15T06:16:50;63.03;;;20.50;;
68803;SDS011;55787;52.678;13.314;2022-11-15T06:19:17;63.22;;;21.65;;
68803;SDS011;55787;52.678;13.314;2022-11-15T06:21:44;67.18;;;21.23;;
68803;SDS011;55787;52.678;13.314;2022-11-15T06:24:10;65.93;;;21.13;;
68803;SDS011;55787;52.678;13.314;2022-11-15T06:26:37;63.45;;;21.98;;
68803;SDS011;55787;52.678;13.314;2022-11-15T06:29:04;64.53;;;20.53;;
68803;SDS011;55787;52.678;13.314;2022-11-15T06:31:31;71.10;;;20.73;;
68803;SDS011;55787;52.678;13.314;2022-11-15T06:33:57;64.75;;;19.80;;
68803;SDS011;55787;52.678;13.314;2022-11-15T06:36:24;59.67;;;19.98;;
68803;SDS011;55787;52.678;13.314;2022-11-15T06:38:51;61.05;;;20.42;;
68803;SDS011;55787;52.678;13.314;2022-11-15T06:41:17;60.77;;;20.03;;
68803;SDS011;55787;52.678;13.314;2022-11-15T06:43:44;58.90;;;20.23;;
68803;SDS011;55787;52.678;13.314;2022-11-15T06:46:11;62.95;;;21.13;;
68803;SDS011;55787;52.678;13.314;2022-11-15T06:48:37;69.45;;;22.23;;
68803;SDS011;55787;52.678;13.314;2022-11-15T06:51:04;77.13;;;22.15;;
68803;SDS011;55787;52.678;13.314;2022-11-15T06:53:31;68.47;;;22.50;;
68803;SDS011;55787;52.678;13.314;2022-11-15T06:56:05;68.28;;;21.88;;
68803;SDS011;55787;52.678;13.314;2022-11-15T06:58:33;71.93;;;21.52;;
68803;SDS011;55787;52.678;13.314;2022-11-15T07:01:02;63.67;;;20.63;;
68803;SDS011;55787;52.678;13.314;2022-11-15T07:03:33;72.20;;;20.88;;
68803;SDS011;55787;52.678;13.314;2022-11-15T07:06:01;76.50;;;25.03;;
68803;SDS011;55787;52.678;13.314;2022-11-15T07:08:33;69.40;;;22.60;;
68803;SDS011;55787;52.678;13.314;2022-11-15T07:11:00;66.22;;;21.60;;
68803;SDS011;55787;52.678;13.314;2022-11-15T07:13:29;69.15;;;21.13;;
68803;SDS011;55787;52.678;13.314;2022-11-15T07:16:05;71.57;;;21.33;;
68803;SDS011;55787;52.678;13.314;2022-11-15T07:18:34;69.33;;;21.90;;
68803;SDS011;55787;52.678;13.314;2022-11-15T07:21:03;68.32;;;22.52;;
68803;SDS011;55787;52.678;13.314;2022-11-15T07:23:30;74.30;;;22.88;;
68803;SDS011;55787;52.678;13.314;2022-11-15T07:25:57;72.05;;;22.88;;
68803;SDS011;55787;52.678;13.314;2022-11-15T07:28:25;70.20;;;22.45;;
68803;SDS011;55787;52.678;13.314;2022-11-15T07:30:53;79.38;;;23.27;;
68803;SDS011;55787;52.678;13.314;2022-11-15T07:33:20;81.68;;;23.77;;
68803;SDS011;55787;52.678;13.314;2022-11-15T07:35:47;79.38;;;23.20;;
68803;SDS011;55787;52.678;13.314;2022-11-15T07:38:16;75.32;;;23.17;;
68803;SDS011;55787;52.678;13.314;2022-11-15T07:40:46;74.82;;;23.10;;
68803;SDS011;55787;52.678;13.314;2022-11-15T07:43:13;77.93;;;24.00;;
68803;SDS011;55787;52.678;13.314;2022-11-15T07:45:44;86.47;;;24.92;;
68803;SDS011;55787;52.678;13.314;2022-11-15T07:48:11;77.65;;;23.88;;
68803;SDS011;55787;52.678;13.314;2022-11-15T07:50:40;86.00;;;24.77;;
68803;SDS011;55787;52.678;13.314;2022-11-15T07:53:08;81.72;;;24.77;;
68803;SDS011;55787;52.678;13.314;2022-11-15T07:55:36;79.00;;;24.10;;
68803;SDS011;55787;52.678;13.314;2022-11-15T07:58:06;78.57;;;23.33;;
68803;SDS011;55787;52.678;13.314;2022-11-15T08:00:35;79.97;;;24.25;;
68803;SDS011;55787;52.678;13.314;2022-11-15T08:03:06;67.95;;;22.83;;
68803;SDS011;55787;52.678;13.314;2022-11-15T08:05:38;72.88;;;23.13;;
68803;SDS011;55787;52.678;13.314;2022-11-15T08:08:06;68.65;;;23.15;;
68803;SDS011;55787;52.678;13.314;2022-11-15T08:10:34;74.40;;;23.52;;
68803;SDS011;55787;52.678;13.314;2022-11-15T08:13:06;70.88;;;23.50;;
68803;SDS011;55787;52.678;13.314;2022-11-15T08:15:35;65.35;;;23.20;;
68803;SDS011;55787;52.678;13.314;2022-11-15T08:18:03;85.00;;;32.05;;
68803;SDS011;55787;52.678;13.314;2022-11-15T08:20:32;61.80;;;22.87;;
68803;SDS011;55787;52.678;13.314;2022-11-15T08:23:00;58.28;;;21.42;;
68803;SDS011;55787;52.678;13.314;2022-11-15T08:25:29;61.58;;;21.58;;
68803;SDS011;55787;52.678;13.314;2022-11-15T08:27:58;63.90;;;22.85;;
68803;SDS011;55787;52.678;13.314;2022-11-15T08:30:27;61.80;;;22.65;;
68803;SDS011;55787;52.678;13.314;2022-11-15T08:32:55;61.38;;;22.50;;
68803;SDS011;55787;52.678;13.314;2022-11-15T08:35:24;59.00;;;23.17;;
68803;SDS011;55787;52.678;13.314;2022-11-15T08:37:54;65.05;;;23.73;;
68803;SDS011;55787;52.678;13.314;2022-11-15T08:40:21;69.90;;;23.23;;
68803;SDS011;55787;52.678;13.314;2022-11-15T08:42:49;68.35;;;23.25;;
68803;SDS011;55787;52.678;13.314;2022-11-15T08:45:16;65.90;;;23.40;;
68803;SDS011;55787;52.678;13.314;2022-11-15T08:47:42;61.33;;;23.63;;
68803;SDS011;55787;52.678;13.314;2022-11-15T08:50:18;59.08;;;22.38;;
68803;SDS011;55787;52.678;13.314;2022-11-15T08:52:44;59.47;;;22.35;;
68803;SDS011;55787;52.678;13.314;2022-11-15T08:55:11;65.05;;;23.80;;
68803;SDS011;55787;52.678;13.314;2022-11-15T08:57:38;57.70;;;23.13;;
68803;SDS011;55787;52.678;13.314;2022-11-15T09:00:05;59.78;;;22.63;;
68803;SDS011;55787;52.678;13.314;2022-11-15T09:02:32;61.78;;;23.15;;
68803;SDS011;55787;52.678;13.314;2022-11-15T09:04:59;53.30;;;21.40;;
68803;SDS011;55787;52.678;13.314;2022-11-15T09:07:25;59.25;;;24.75;;
68803;SDS011;55787;52.678;13.314;2022-11-15T09:09:52;50.17;;;20.00;;
68803;SDS011;55787;52.678;13.314;2022-11-15T09:12:19;45.97;;;20.20;;
68803;SDS011;55787;52.678;13.314;2022-11-15T09:14:45;47.72;;;20.80;;
68803;SDS011;55787;52.678;13.314;2022-11-15T09:17:12;46.63;;;19.73;;
68803;SDS011;55787;52.678;13.314;2022-11-15T09:19:39;40.72;;;18.63;;
68803;SDS011;55787;52.678;13.314;2022-11-15T09:22:06;42.60;;;18.60;;
68803;SDS011;55787;52.678;13.314;2022-11-15T09:24:34;36.80;;;17.27;;
68803;SDS011;55787;52.678;13.314;2022-11-15T09:27:02;42.05;;;19.95;;
68803;SDS011;55787;52.678;13.314;2022-11-15T09:29:29;42.30;;;18.92;;
68803;SDS011;55787;52.678;13.314;2022-11-15T09:31:55;41.30;;;19.00;;
68803;SDS011;55787;52.678;13.314;2022-11-15T09:34:22;43.58;;;19.55;;
68803;SDS011;55787;52.678;13.314;2022-11-15T09:36:48;41.08;;;18.77;;
68803;SDS011;55787;52.678;13.314;2022-11-15T09:39:15;57.70;;;21.92;;
68803;SDS011;55787;52.678;13.314;2022-11-15T09:49:52;33.28;;;17.27;;
68803;SDS011;55787;52.678;13.314;2022-11-15T09:52:23;36.33;;;17.67;;
68803;SDS011;55787;52.678;13.314;2022-11-15T09:54:51;32.42;;;16.48;;
68803;SDS011;55787;52.678;13.314;2022-11-15T09:57:45;35.47;;;16.65;;
68803;SDS011;55787;52.678;13.314;2022-11-15T10:05:43;38.95;;;18.63;;
68803;SDS011;55787;52.678;13.314;2022-11-15T10:11:07;34.45;;;17.27;;
68803;SDS011;55787;52.678;13.314;2022-11-15T10:13:58;35.35;;;17.88;;
68803;SDS011;55787;52.678;13.314;2022-11-15T10:19:07;37.97;;;17.50;;
68803;SDS011;55787;52.678;13.314;2022-11-15T10:22:21;36.95;;;17.15;;
68803;SDS011;55787;52.678;13.314;2022-11-15T10:24:43;36.63;;;17.85;;
68803;SDS011;55787;52.678;13.314;2022-11-15T10:27:12;35.55;;;16.77;;
68803;SDS011;55787;52.678;13.314;2022-11-15T10:29:45;34.20;;;16.73;;
68803;SDS011;55787;52.678;13.314;2022-11-15T10:32:13;36.63;;;16.25;;
68803;SDS011;55787;52.678;13.314;2022-11-15T10:34:41;32.30;;;15.73;;
68803;SDS011;55787;52.678;13.314;2022-11-15T10:37:08;33.13;;;15.75;;
68803;SDS011;55787;52.678;13.314;2022-11-15T10:39:35;32.55;;;16.00;;
68803;SDS011;55787;52.678;13.314;2022-11-15T10:42:45;32.40;;;14.57;;
68803;SDS011;55787;52.678;13.314;2022-11-15T10:44:53;31.08;;;14.75;;
68803;SDS011;55787;52.678;13.314;2022-11-15T10:47:23;29.70;;;13.77;;
68803;SDS011;55787;52.678;13.314;2022-11-15T10:49:56;31.63;;;14.75;;
68803;SDS011;55787;52.678;13.314;2022-11-15T10:52:27;32.60;;;14.85;;
68803;SDS011;55787;52.678;13.314;2022-11-15T10:57:29;31.23;;;14.23;;
68803;SDS011;55787;52.678;13.314;2022-11-15T11:00:01;32.95;;;14.38;;
68803;SDS011;55787;52.678;13.314;2022-11-15T11:03:27;29.40;;;13.57;;
68803;SDS011;55787;52.678;13.314;2022-11-15T11:05:48;28.55;;;13.10;;
68803;SDS011;55787;52.678;13.314;2022-11-15T11:08:30;29.50;;;13.50;;
68803;SDS011;55787;52.678;13.314;2022-11-15T11:10:59;32.33;;;14.00;;
68803;SDS011;55787;52.678;13.314;2022-11-15T11:27:16;26.50;;;12.57;;
68803;SDS011;55787;52.678;13.314;2022-11-15T11:30:06;29.15;;;12.38;;
68803;SDS011;55787;52.678;13.314;2022-11-15T11:35:30;29.92;;;12.93;;
68803;SDS011;55787;52.678;13.314;2022-11-15T11:38:09;25.38;;;12.35;;
68803;SDS011;55787;52.678;13.314;2022-11-15T11:40:57;29.98;;;13.27;;
68803;SDS011;55787;52.678;13.314;2022-11-15T11:43:57;27.67;;;12.45;;
68803;SDS011;55787;52.678;13.314;2022-11-15T11:47:31;28.25;;;12.27;;
68803;SDS011;55787;52.678;13.314;2022-11-15T11:49:37;26.60;;;11.90;;
68803;SDS011;55787;52.678;13.314;2022-11-15T11:52:23;28.83;;;12.27;;
68803;SDS011;55787;52.678;13.314;2022-11-15T12:00:49;24.88;;;12.25;;
68803;SDS011;55787;52.678;13.314;2022-11-15T12:06:01;26.67;;;12.77;;
68803;SDS011;55787;52.678;13.314;2022-11-15T12:13:35;26.05;;;11.82;;
68803;SDS011;55787;52.678;13.314;2022-11-15T12:16:06;29.73;;;12.80;;
68803;SDS011;55787;52.678;13.314;2022-11-15T12:18:36;24.38;;;12.45;;
68803;SDS011;55787;52.678;13.314;2022-11-15T12:21:08;25.30;;;11.93;;
68803;SDS011;55787;52.678;13.314;2022-11-15T12:24:02;24.63;;;12.40;;
68803;SDS011;55787;52.678;13.314;2022-11-15T12:26:37;25.95;;;12.07;;
68803;SDS011;55787;52.678;13.314;2022-11-15T12:29:18;24.95;;;11.48;;
68803;SDS011;55787;52.678;13.314;2022-11-15T12:31:51;25.05;;;11.65;;
68803;SDS011;55787;52.678;13.314;2022-11-15T12:36:55;26.77;;;12.18;;
68803;SDS011;55787;52.678;13.314;2022-11-15T12:40:02;28.42;;;13.35;;
68803;SDS011;55787;52.678;13.314;2022-11-15T12:44:56;26.35;;;13.13;;
68803;SDS011;55787;52.678;13.314;2022-11-15T12:47:26;25.70;;;12.75;;
68803;SDS011;55787;52.678;13.314;2022-11-15T12:49:54;28.00;;;12.27;;
68803;SDS011;55787;52.678;13.314;2022-11-15T12:52:20;26.92;;;13.30;;
68803;SDS011;55787;52.678;13.314;2022-11-15T12:54:52;28.20;;;13.40;;
68803;SDS011;55787;52.678;13.314;2022-11-15T13:00:23;26.98;;;12.93;;
68803;SDS011;55787;52.678;13.314;2022-11-15T13:03:12;26.60;;;12.52;;
68803;SDS011;55787;52.678;13.314;2022-11-15T13:05:55;28.13;;;13.50;;
68803;SDS011;55787;52.678;13.314;2022-11-15T13:08:43;24.90;;;12.52;;
68803;SDS011;55787;52.678;13.314;2022-11-15T13:17:01;27.45;;;13.20;;
68803;SDS011;55787;52.678;13.314;2022-11-15T13:19:29;27.92;;;12.82;;
68803;SDS011;55787;52.678;13.314;2022-11-15T13:21:56;26.23;;;12.88;;
68803;SDS011;55787;52.678;13.314;2022-11-15T13:24:42;25.50;;;12.70;;
68803;SDS011;55787;52.678;13.314;2022-11-15T13:27:15;26.52;;;12.82;;
68803;SDS011;55787;52.678;13.314;2022-11-15T13:29:45;26.42;;;12.93;;
68803;SDS011;55787;52.678;13.314;2022-11-15T13:32:12;27.10;;;12.73;;
68803;SDS011;55787;52.678;13.314;2022-11-15T13:34:45;30.65;;;13.18;;
68803;SDS011;55787;52.678;13.314;2022-11-15T13:39:48;26.90;;;12.95;;
68803;SDS011;55787;52.678;13.314;2022-11-15T13:42:16;24.58;;;12.48;;
68803;SDS011;55787;52.678;13.314;2022-11-15T13:44:57;24.27;;;11.75;;
68803;SDS011;55787;52.678;13.314;2022-11-15T13:47:26;27.20;;;12.27;;
68803;SDS011;55787;52.678;13.314;2022-11-15T13:49:56;28.58;;;12.90;;
68803;SDS011;55787;52.678;13.314;2022-11-15T13:52:25;26.50;;;12.63;;
68803;SDS011;55787;52.678;13.314;2022-11-15T13:55:01;24.77;;;12.00;;
68803;SDS011;55787;52.678;13.314;2022-11-15T14:00:05;24.63;;;11.65;;
68803;SDS011;55787;52.678;13.314;2022-11-15T14:02:50;25.60;;;12.20;;
68803;SDS011;55787;52.678;13.314;2022-11-15T14:05:18;25.30;;;11.82;;
68803;SDS011;55787;52.678;13.314;2022-11-15T14:07:54;24.58;;;11.52;;
68803;SDS011;55787;52.678;13.314;2022-11-15T14:13:00;24.42;;;11.13;;
68803;SDS011;55787;52.678;13.314;2022-11-15T14:17:59;24.00;;;11.50;;
68803;SDS011;55787;52.678;13.314;2022-11-15T14:20:33;23.45;;;11.27;;
68803;SDS011;55787;52.678;13.314;2022-11-15T14:23:03;23.55;;;11.15;;
68803;SDS011;55787;52.678;13.314;2022-11-15T14:25:33;22.40;;;11.32;;
68803;SDS011;55787;52.678;13.314;2022-11-15T14:30:50;25.15;;;11.27;;
68803;SDS011;55787;52.678;13.314;2022-11-15T14:36:02;21.20;;;10.68;;
68803;SDS011;55787;52.678;13.314;2022-11-15T14:38:39;25.50;;;11.57;;
68803;SDS011;55787;52.678;13.314;2022-11-15T14:41:17;24.85;;;11.75;;
68803;SDS011;55787;52.678;13.314;2022-11-15T14:43:48;25.63;;;11.70;;
68803;SDS011;55787;52.678;13.314;2022-11-15T14:46:16;24.85;;;11.20;;
68803;SDS011;55787;52.678;13.314;2022-11-15T14:48:42;24.85;;;11.18;;
68803;SDS011;55787;52.678;13.314;2022-11-15T14:51:13;21.67;;;10.90;;
68803;SDS011;55787;52.678;13.314;2022-11-15T14:53:42;26.55;;;11.50;;
68803;SDS011;55787;52.678;13.314;2022-11-15T14:56:10;25.67;;;11.85;;
68803;SDS011;55787;52.678;13.314;2022-11-15T14:58:37;29.25;;;12.40;;
68803;SDS011;55787;52.678;13.314;2022-11-15T15:03:40;26.33;;;12.40;;
68803;SDS011;55787;52.678;13.314;2022-11-15T15:06:07;26.30;;;12.40;;
68803;SDS011;55787;52.678;13.314;2022-11-15T15:08:42;26.48;;;12.40;;
68803;SDS011;55787;52.678;13.314;2022-11-15T15:11:10;25.55;;;12.20;;
68803;SDS011;55787;52.678;13.314;2022-11-15T15:13:41;29.95;;;13.00;;
68803;SDS011;55787;52.678;13.314;2022-11-15T15:16:08;27.40;;;12.35;;
68803;SDS011;55787;52.678;13.314;2022-11-15T15:18:34;27.33;;;12.45;;
68803;SDS011;55787;52.678;13.314;2022-11-15T15:21:01;26.52;;;12.10;;
68803;SDS011;55787;52.678;13.314;2022-11-15T15:23:33;25.08;;;12.23;;
68803;SDS011;55787;52.678;13.314;2022-11-15T15:26:01;27.37;;;12.80;;
68803;SDS011;55787;52.678;13.314;2022-11-15T15:28:28;26.98;;;11.80;;
68803;SDS011;55787;52.678;13.314;2022-11-15T15:31:00;29.15;;;12.73;;
68803;SDS011;55787;52.678;13.314;2022-11-15T15:33:27;26.73;;;12.80;;
68803;SDS011;55787;52.678;13.314;2022-11-15T15:35:54;27.40;;;15.13;;
68803;SDS011;55787;52.678;13.314;2022-11-15T15:38:21;32.60;;;16.55;;
68803;SDS011;55787;52.678;13.314;2022-11-15T15:40:48;30.95;;;16.23;;
68803;SDS011;55787;52.678;13.314;2022-11-15T15:43:17;29.70;;;14.45;;
68803;SDS011;55787;52.678;13.314;2022-11-15T15:45:43;28.70;;;13.75;;
68803;SDS011;55787;52.678;13.314;2022-11-15T15:48:12;28.50;;;13.32;;
68803;SDS011;55787;52.678;13.314;2022-11-15T15:50:40;27.40;;;12.60;;
68803;SDS011;55787;52.678;13.314;2022-11-15T15:53:09;29.55;;;13.05;;
68803;SDS011;55787;52.678;13.314;2022-11-15T15:55:37;28.23;;;12.60;;
68803;SDS011;55787;52.678;13.314;2022-11-15T15:58:04;27.80;;;13.18;;
68803;SDS011;55787;52.678;13.314;2022-11-15T16:00:31;30.45;;;13.15;;
68803;SDS011;55787;52.678;13.314;2022-11-15T16:02:59;26.70;;;13.17;;
68803;SDS011;55787;52.678;13.314;2022-11-15T16:05:26;27.25;;;11.85;;
68803;SDS011;55787;52.678;13.314;2022-11-15T16:07:53;25.42;;;11.73;;
68803;SDS011;55787;52.678;13.314;2022-11-15T16:10:24;26.60;;;12.40;;
68803;SDS011;55787;52.678;13.314;2022-11-15T16:12:52;42.55;;;21.08;;
68803;SDS011;55787;52.678;13.314;2022-11-15T16:15:20;43.55;;;22.33;;
68803;SDS011;55787;52.678;13.314;2022-11-15T16:17:49;29.30;;;14.75;;
68803;SDS011;55787;52.678;13.314;2022-11-15T16:20:28;32.08;;;16.52;;
68803;SDS011;55787;52.678;13.314;2022-11-15T16:23:02;33.15;;;17.63;;
68803;SDS011;55787;52.678;13.314;2022-11-15T16:25:41;31.38;;;16.33;;